Terminal Aerodrome Forecast
Issued by NWS

Home | Current Version | Previous Version | Text Only | Print | Product List | Glossary On
Versions: 1 2 3 4 5 6 7 8 9 10 11 12 13 14 15
000
FTUS44 KEPZ 290200 AAA
TAFLRU
TAF AMD
KLRU 290235Z 2903/2924 VRB06KT P6SM VCTS SCT070CB SCT120 BKN200
     FM290600 VRB03KT P6SM FEW080 SCT120 SCT250
     FM292100 VRB06KT P6SM VCTS SCT080CB SCT120=

USA.gov is the U.S. government's official web portal to all federal, state and local government web resources and services.